sensor_id;sensor_type;location;lat;lon;timestamp;P1;durP1;ratioP1;P2;durP2;ratioP2
54123;SDS011;55741;53.252;5.788;2023-12-22T00:01:31;40.30;;;6.00;;
54123;SDS011;55741;53.252;5.788;2023-12-22T00:03:57;32.63;;;5.75;;
54123;SDS011;55741;53.252;5.788;2023-12-22T00:06:22;36.08;;;8.05;;
54123;SDS011;55741;53.252;5.788;2023-12-22T00:08:48;36.22;;;8.63;;
54123;SDS011;55741;53.252;5.788;2023-12-22T00:11:14;32.63;;;6.20;;
54123;SDS011;55741;53.252;5.788;2023-12-22T00:13:40;37.70;;;6.85;;
54123;SDS011;55741;53.252;5.788;2023-12-22T00:16:06;30.95;;;6.03;;
54123;SDS011;55741;53.252;5.788;2023-12-22T00:18:32;35.92;;;7.95;;
54123;SDS011;55741;53.252;5.788;2023-12-22T00:20:57;29.77;;;6.03;;
54123;SDS011;55741;53.252;5.788;2023-12-22T00:23:23;34.58;;;6.38;;
54123;SDS011;55741;53.252;5.788;2023-12-22T00:25:49;29.35;;;6.55;;
54123;SDS011;55741;53.252;5.788;2023-12-22T00:28:15;24.75;;;6.30;;
54123;SDS011;55741;53.252;5.788;2023-12-22T00:30:41;32.60;;;5.78;;
54123;SDS011;55741;53.252;5.788;2023-12-22T00:33:06;23.23;;;3.97;;
54123;SDS011;55741;53.252;5.788;2023-12-22T00:35:32;30.60;;;5.43;;
54123;SDS011;55741;53.252;5.788;2023-12-22T00:38:00;38.65;;;5.85;;
54123;SDS011;55741;53.252;5.788;2023-12-22T00:40:26;42.85;;;6.47;;
54123;SDS011;55741;53.252;5.788;2023-12-22T00:42:52;38.58;;;5.97;;
54123;SDS011;55741;53.252;5.788;2023-12-22T00:45:18;31.23;;;6.20;;
54123;SDS011;55741;53.252;5.788;2023-12-22T00:47:44;40.50;;;7.10;;
54123;SDS011;55741;53.252;5.788;2023-12-22T00:50:10;27.25;;;4.40;;
54123;SDS011;55741;53.252;5.788;2023-12-22T00:52:37;22.80;;;4.47;;
54123;SDS011;55741;53.252;5.788;2023-12-22T00:55:06;23.17;;;3.97;;
54123;SDS011;55741;53.252;5.788;2023-12-22T00:57:32;30.25;;;4.43;;
54123;SDS011;55741;53.252;5.788;2023-12-22T00:59:58;29.40;;;4.32;;
54123;SDS011;55741;53.252;5.788;2023-12-22T01:02:24;30.48;;;4.93;;
54123;SDS011;55741;53.252;5.788;2023-12-22T01:04:49;31.55;;;4.50;;
54123;SDS011;55741;53.252;5.788;2023-12-22T01:07:15;29.60;;;5.38;;
54123;SDS011;55741;53.252;5.788;2023-12-22T01:09:42;29.38;;;5.68;;
54123;SDS011;55741;53.252;5.788;2023-12-22T01:12:08;28.35;;;5.40;;
54123;SDS011;55741;53.252;5.788;2023-12-22T01:14:35;40.85;;;6.55;;
54123;SDS011;55741;53.252;5.788;2023-12-22T01:17:01;25.13;;;5.43;;
54123;SDS011;55741;53.252;5.788;2023-12-22T01:19:27;27.15;;;5.38;;
54123;SDS011;55741;53.252;5.788;2023-12-22T01:21:53;30.67;;;5.15;;
54123;SDS011;55741;53.252;5.788;2023-12-22T01:24:20;31.58;;;5.82;;
54123;SDS011;55741;53.252;5.788;2023-12-22T01:26:46;28.08;;;5.70;;
54123;SDS011;55741;53.252;5.788;2023-12-22T01:29:12;32.80;;;5.55;;
54123;SDS011;55741;53.252;5.788;2023-12-22T01:31:38;35.60;;;6.22;;
54123;SDS011;55741;53.252;5.788;2023-12-22T01:34:04;40.03;;;7.63;;
54123;SDS011;55741;53.252;5.788;2023-12-22T01:36:29;29.52;;;5.88;;
54123;SDS011;55741;53.252;5.788;2023-12-22T01:38:55;34.47;;;5.72;;
54123;SDS011;55741;53.252;5.788;2023-12-22T01:41:21;43.08;;;7.70;;
54123;SDS011;55741;53.252;5.788;2023-12-22T01:43:47;36.80;;;7.50;;
54123;SDS011;55741;53.252;5.788;2023-12-22T01:46:13;28.05;;;5.15;;
54123;SDS011;55741;53.252;5.788;2023-12-22T01:48:39;32.05;;;5.60;;
54123;SDS011;55741;53.252;5.788;2023-12-22T01:51:05;28.15;;;5.50;;
54123;SDS011;55741;53.252;5.788;2023-12-22T01:53:32;23.42;;;4.53;;
54123;SDS011;55741;53.252;5.788;2023-12-22T01:56:00;24.98;;;4.43;;
54123;SDS011;55741;53.252;5.788;2023-12-22T01:58:28;16.35;;;2.97;;
54123;SDS011;55741;53.252;5.788;2023-12-22T02:01:15;17.63;;;3.78;;
54123;SDS011;55741;53.252;5.788;2023-12-22T02:03:42;21.48;;;3.50;;
54123;SDS011;55741;53.252;5.788;2023-12-22T02:06:08;25.70;;;3.65;;
54123;SDS011;55741;53.252;5.788;2023-12-22T02:08:34;24.23;;;4.18;;
54123;SDS011;55741;53.252;5.788;2023-12-22T02:11:01;24.67;;;4.05;;
54123;SDS011;55741;53.252;5.788;2023-12-22T02:13:28;24.30;;;4.22;;
54123;SDS011;55741;53.252;5.788;2023-12-22T02:15:56;25.77;;;5.32;;
54123;SDS011;55741;53.252;5.788;2023-12-22T02:18:31;22.08;;;4.13;;
54123;SDS011;55741;53.252;5.788;2023-12-22T02:21:00;25.02;;;4.35;;
54123;SDS011;55741;53.252;5.788;2023-12-22T02:23:26;15.02;;;2.70;;
54123;SDS011;55741;53.252;5.788;2023-12-22T02:25:53;18.42;;;2.75;;
54123;SDS011;55741;53.252;5.788;2023-12-22T02:28:27;14.00;;;2.28;;
54123;SDS011;55741;53.252;5.788;2023-12-22T02:30:54;14.32;;;2.83;;
54123;SDS011;55741;53.252;5.788;2023-12-22T02:35:58;22.40;;;3.63;;
54123;SDS011;55741;53.252;5.788;2023-12-22T02:38:29;19.75;;;4.22;;
54123;SDS011;55741;53.252;5.788;2023-12-22T02:40:56;18.55;;;4.03;;
54123;SDS011;55741;53.252;5.788;2023-12-22T02:43:23;21.45;;;4.35;;
54123;SDS011;55741;53.252;5.788;2023-12-22T02:45:51;20.90;;;3.95;;
54123;SDS011;55741;53.252;5.788;2023-12-22T02:48:17;22.52;;;4.85;;
54123;SDS011;55741;53.252;5.788;2023-12-22T02:50:43;23.60;;;5.22;;
54123;SDS011;55741;53.252;5.788;2023-12-22T02:53:09;30.20;;;4.35;;
54123;SDS011;55741;53.252;5.788;2023-12-22T02:55:35;24.58;;;4.75;;
54123;SDS011;55741;53.252;5.788;2023-12-22T02:58:02;27.25;;;5.35;;
54123;SDS011;55741;53.252;5.788;2023-12-22T03:00:28;33.50;;;6.18;;
54123;SDS011;55741;53.252;5.788;2023-12-22T03:02:54;38.30;;;6.65;;
54123;SDS011;55741;53.252;5.788;2023-12-22T03:05:20;36.35;;;6.05;;
54123;SDS011;55741;53.252;5.788;2023-12-22T03:07:46;26.77;;;5.25;;
54123;SDS011;55741;53.252;5.788;2023-12-22T03:10:12;31.42;;;5.40;;
54123;SDS011;55741;53.252;5.788;2023-12-22T03:12:37;30.35;;;6.28;;
54123;SDS011;55741;53.252;5.788;2023-12-22T03:15:04;29.77;;;6.00;;
54123;SDS011;55741;53.252;5.788;2023-12-22T03:17:30;29.00;;;6.13;;
54123;SDS011;55741;53.252;5.788;2023-12-22T03:19:56;31.45;;;6.00;;
54123;SDS011;55741;53.252;5.788;2023-12-22T03:22:22;31.85;;;5.70;;
54123;SDS011;55741;53.252;5.788;2023-12-22T03:24:48;30.83;;;5.10;;
54123;SDS011;55741;53.252;5.788;2023-12-22T03:27:13;36.95;;;5.63;;
54123;SDS011;55741;53.252;5.788;2023-12-22T03:29:42;33.83;;;5.72;;
54123;SDS011;55741;53.252;5.788;2023-12-22T03:32:28;31.88;;;5.47;;
54123;SDS011;55741;53.252;5.788;2023-12-22T03:34:54;28.35;;;4.60;;
54123;SDS011;55741;53.252;5.788;2023-12-22T03:37:20;25.90;;;5.75;;
54123;SDS011;55741;53.252;5.788;2023-12-22T03:39:45;21.10;;;4.20;;
54123;SDS011;55741;53.252;5.788;2023-12-22T03:42:11;31.27;;;5.35;;
54123;SDS011;55741;53.252;5.788;2023-12-22T03:44:37;27.83;;;5.22;;
54123;SDS011;55741;53.252;5.788;2023-12-22T03:47:03;29.13;;;4.82;;
54123;SDS011;55741;53.252;5.788;2023-12-22T03:49:29;33.38;;;5.68;;
54123;SDS011;55741;53.252;5.788;2023-12-22T03:51:54;34.85;;;5.65;;
54123;SDS011;55741;53.252;5.788;2023-12-22T03:54:40;37.65;;;6.68;;
54123;SDS011;55741;53.252;5.788;2023-12-22T03:57:06;33.80;;;6.45;;
54123;SDS011;55741;53.252;5.788;2023-12-22T03:59:33;28.08;;;4.90;;
54123;SDS011;55741;53.252;5.788;2023-12-22T04:01:59;28.98;;;6.10;;
54123;SDS011;55741;53.252;5.788;2023-12-22T04:04:27;27.25;;;5.57;;
54123;SDS011;55741;53.252;5.788;2023-12-22T04:06:53;34.25;;;5.28;;
54123;SDS011;55741;53.252;5.788;2023-12-22T04:09:19;31.42;;;5.45;;
54123;SDS011;55741;53.252;5.788;2023-12-22T04:11:45;32.42;;;5.65;;
54123;SDS011;55741;53.252;5.788;2023-12-22T04:14:11;32.22;;;5.70;;
54123;SDS011;55741;53.252;5.788;2023-12-22T04:16:37;30.77;;;5.50;;
54123;SDS011;55741;53.252;5.788;2023-12-22T04:19:03;33.67;;;5.45;;
54123;SDS011;55741;53.252;5.788;2023-12-22T04:21:29;27.73;;;5.18;;
54123;SDS011;55741;53.252;5.788;2023-12-22T04:23:55;33.88;;;5.70;;
54123;SDS011;55741;53.252;5.788;2023-12-22T04:26:21;31.13;;;5.75;;
54123;SDS011;55741;53.252;5.788;2023-12-22T04:28:47;33.20;;;6.70;;
54123;SDS011;55741;53.252;5.788;2023-12-22T04:31:12;31.33;;;5.93;;
54123;SDS011;55741;53.252;5.788;2023-12-22T04:33:58;36.88;;;6.72;;
54123;SDS011;55741;53.252;5.788;2023-12-22T04:36:24;27.27;;;4.78;;
54123;SDS011;55741;53.252;5.788;2023-12-22T04:38:50;24.77;;;4.63;;
54123;SDS011;55741;53.252;5.788;2023-12-22T04:41:16;32.72;;;5.50;;
54123;SDS011;55741;53.252;5.788;2023-12-22T04:43:41;32.22;;;5.10;;
54123;SDS011;55741;53.252;5.788;2023-12-22T04:46:07;33.30;;;5.63;;
54123;SDS011;55741;53.252;5.788;2023-12-22T04:48:33;24.67;;;5.40;;
54123;SDS011;55741;53.252;5.788;2023-12-22T04:50:59;24.33;;;5.07;;
54123;SDS011;55741;53.252;5.788;2023-12-22T04:53:25;28.98;;;5.75;;
54123;SDS011;55741;53.252;5.788;2023-12-22T04:55:51;18.70;;;4.50;;
54123;SDS011;55741;53.252;5.788;2023-12-22T04:58:16;30.45;;;5.00;;
54123;SDS011;55741;53.252;5.788;2023-12-22T05:00:44;24.35;;;5.13;;
54123;SDS011;55741;53.252;5.788;2023-12-22T05:03:10;26.35;;;4.80;;
54123;SDS011;55741;53.252;5.788;2023-12-22T05:05:36;26.55;;;5.10;;
54123;SDS011;55741;53.252;5.788;2023-12-22T05:08:02;26.77;;;5.28;;
54123;SDS011;55741;53.252;5.788;2023-12-22T05:10:28;26.80;;;4.93;;
54123;SDS011;55741;53.252;5.788;2023-12-22T05:12:54;24.77;;;4.35;;
54123;SDS011;55741;53.252;5.788;2023-12-22T05:15:20;27.13;;;5.68;;
54123;SDS011;55741;53.252;5.788;2023-12-22T05:17:45;27.40;;;5.65;;
54123;SDS011;55741;53.252;5.788;2023-12-22T05:20:11;28.42;;;5.07;;
54123;SDS011;55741;53.252;5.788;2023-12-22T05:22:37;32.58;;;5.47;;
54123;SDS011;55741;53.252;5.788;2023-12-22T05:25:03;27.83;;;5.68;;
54123;SDS011;55741;53.252;5.788;2023-12-22T05:27:30;26.58;;;5.20;;
54123;SDS011;55741;53.252;5.788;2023-12-22T05:29:55;27.90;;;4.88;;
54123;SDS011;55741;53.252;5.788;2023-12-22T05:32:27;25.85;;;4.22;;
54123;SDS011;55741;53.252;5.788;2023-12-22T05:34:52;21.42;;;4.65;;
54123;SDS011;55741;53.252;5.788;2023-12-22T05:37:18;30.05;;;4.90;;
54123;SDS011;55741;53.252;5.788;2023-12-22T05:40:04;30.55;;;4.72;;
54123;SDS011;55741;53.252;5.788;2023-12-22T05:42:51;25.08;;;4.38;;
54123;SDS011;55741;53.252;5.788;2023-12-22T05:45:17;26.50;;;4.43;;
54123;SDS011;55741;53.252;5.788;2023-12-22T05:47:43;24.42;;;4.55;;
54123;SDS011;55741;53.252;5.788;2023-12-22T05:50:09;23.17;;;4.72;;
54123;SDS011;55741;53.252;5.788;2023-12-22T05:52:36;29.45;;;4.78;;
54123;SDS011;55741;53.252;5.788;2023-12-22T05:55:02;27.92;;;5.38;;
54123;SDS011;55741;53.252;5.788;2023-12-22T05:57:28;33.55;;;5.82;;
54123;SDS011;55741;53.252;5.788;2023-12-22T05:59:53;25.30;;;4.35;;
54123;SDS011;55741;53.252;5.788;2023-12-22T06:02:21;17.77;;;4.43;;
54123;SDS011;55741;53.252;5.788;2023-12-22T06:04:47;26.33;;;4.50;;
54123;SDS011;55741;53.252;5.788;2023-12-22T06:07:12;22.45;;;3.72;;
54123;SDS011;55741;53.252;5.788;2023-12-22T06:09:38;27.83;;;4.25;;
54123;SDS011;55741;53.252;5.788;2023-12-22T06:12:04;22.85;;;4.82;;
54123;SDS011;55741;53.252;5.788;2023-12-22T06:14:31;26.08;;;5.25;;
54123;SDS011;55741;53.252;5.788;2023-12-22T06:16:57;20.48;;;4.25;;
54123;SDS011;55741;53.252;5.788;2023-12-22T06:19:23;24.95;;;4.25;;
54123;SDS011;55741;53.252;5.788;2023-12-22T06:21:53;33.30;;;5.50;;
54123;SDS011;55741;53.252;5.788;2023-12-22T06:24:19;19.85;;;4.68;;
54123;SDS011;55741;53.252;5.788;2023-12-22T06:26:45;21.75;;;4.10;;
54123;SDS011;55741;53.252;5.788;2023-12-22T06:29:11;22.30;;;4.95;;
54123;SDS011;55741;53.252;5.788;2023-12-22T06:31:37;19.08;;;4.93;;
54123;SDS011;55741;53.252;5.788;2023-12-22T06:34:02;32.08;;;4.68;;
54123;SDS011;55741;53.252;5.788;2023-12-22T06:36:28;25.85;;;4.13;;
54123;SDS011;55741;53.252;5.788;2023-12-22T06:38:55;36.10;;;6.45;;
54123;SDS011;55741;53.252;5.788;2023-12-22T06:41:26;28.85;;;4.88;;
54123;SDS011;55741;53.252;5.788;2023-12-22T06:43:54;25.73;;;4.72;;
54123;SDS011;55741;53.252;5.788;2023-12-22T06:46:22;24.10;;;4.15;;
54123;SDS011;55741;53.252;5.788;2023-12-22T06:48:51;19.80;;;4.03;;
54123;SDS011;55741;53.252;5.788;2023-12-22T06:51:37;23.58;;;4.20;;
54123;SDS011;55741;53.252;5.788;2023-12-22T06:54:03;25.90;;;4.13;;
54123;SDS011;55741;53.252;5.788;2023-12-22T06:56:32;30.15;;;5.75;;
54123;SDS011;55741;53.252;5.788;2023-12-22T06:58:59;19.20;;;4.38;;
54123;SDS011;55741;53.252;5.788;2023-12-22T07:01:28;19.90;;;4.78;;
54123;SDS011;55741;53.252;5.788;2023-12-22T07:04:00;22.25;;;3.50;;
54123;SDS011;55741;53.252;5.788;2023-12-22T07:06:31;22.85;;;4.22;;
54123;SDS011;55741;53.252;5.788;2023-12-22T07:12:04;20.83;;;4.25;;
54123;SDS011;55741;53.252;5.788;2023-12-22T07:14:31;27.17;;;5.35;;
54123;SDS011;55741;53.252;5.788;2023-12-22T07:16:57;28.75;;;4.55;;
54123;SDS011;55741;53.252;5.788;2023-12-22T07:19:23;28.73;;;5.32;;
54123;SDS011;55741;53.252;5.788;2023-12-22T07:21:49;34.35;;;6.72;;
54123;SDS011;55741;53.252;5.788;2023-12-22T07:24:15;25.90;;;4.68;;
54123;SDS011;55741;53.252;5.788;2023-12-22T07:26:41;31.58;;;6.25;;
54123;SDS011;55741;53.252;5.788;2023-12-22T07:29:07;32.75;;;5.90;;
54123;SDS011;55741;53.252;5.788;2023-12-22T07:31:33;33.15;;;6.45;;
54123;SDS011;55741;53.252;5.788;2023-12-22T07:33:58;32.05;;;4.50;;
54123;SDS011;55741;53.252;5.788;2023-12-22T07:36:24;22.23;;;4.50;;
54123;SDS011;55741;53.252;5.788;2023-12-22T07:38:50;27.75;;;5.15;;
54123;SDS011;55741;53.252;5.788;2023-12-22T07:41:16;26.27;;;4.28;;
54123;SDS011;55741;53.252;5.788;2023-12-22T07:43:42;31.52;;;5.38;;
54123;SDS011;55741;53.252;5.788;2023-12-22T07:46:08;34.00;;;5.20;;
54123;SDS011;55741;53.252;5.788;2023-12-22T07:48:34;27.58;;;4.93;;
54123;SDS011;55741;53.252;5.788;2023-12-22T07:51:00;14.10;;;3.58;;
54123;SDS011;55741;53.252;5.788;2023-12-22T07:53:26;24.00;;;6.05;;
54123;SDS011;55741;53.252;5.788;2023-12-22T07:55:52;18.35;;;4.25;;
54123;SDS011;55741;53.252;5.788;2023-12-22T07:58:17;18.90;;;3.42;;
54123;SDS011;55741;53.252;5.788;2023-12-22T08:00:44;17.00;;;3.35;;
54123;SDS011;55741;53.252;5.788;2023-12-22T08:03:11;19.45;;;3.25;;
54123;SDS011;55741;53.252;5.788;2023-12-22T08:05:38;10.32;;;2.53;;
54123;SDS011;55741;53.252;5.788;2023-12-22T08:08:04;11.25;;;2.67;;
54123;SDS011;55741;53.252;5.788;2023-12-22T08:10:30;14.90;;;2.40;;
54123;SDS011;55741;53.252;5.788;2023-12-22T08:12:56;11.02;;;2.05;;
54123;SDS011;55741;53.252;5.788;2023-12-22T08:15:22;16.13;;;3.13;;
54123;SDS011;55741;53.252;5.788;2023-12-22T08:17:48;11.73;;;1.63;;
54123;SDS011;55741;53.252;5.788;2023-12-22T08:20:19;14.48;;;3.00;;
54123;SDS011;55741;53.252;5.788;2023-12-22T08:22:45;16.50;;;3.08;;
54123;SDS011;55741;53.252;5.788;2023-12-22T08:25:11;15.50;;;2.63;;
54123;SDS011;55741;53.252;5.788;2023-12-22T08:27:38;17.85;;;2.72;;
54123;SDS011;55741;53.252;5.788;2023-12-22T08:30:04;22.80;;;3.45;;
54123;SDS011;55741;53.252;5.788;2023-12-22T08:32:30;20.65;;;4.93;;
54123;SDS011;55741;53.252;5.788;2023-12-22T08:34:56;22.58;;;3.95;;
54123;SDS011;55741;53.252;5.788;2023-12-22T08:37:22;17.48;;;3.30;;
54123;SDS011;55741;53.252;5.788;2023-12-22T08:39:47;20.58;;;3.50;;
54123;SDS011;55741;53.252;5.788;2023-12-22T08:42:14;16.25;;;3.65;;
54123;SDS011;55741;53.252;5.788;2023-12-22T08:44:40;21.63;;;3.80;;
54123;SDS011;55741;53.252;5.788;2023-12-22T08:47:07;20.95;;;3.30;;
54123;SDS011;55741;53.252;5.788;2023-12-22T08:49:33;18.92;;;4.18;;
54123;SDS011;55741;53.252;5.788;2023-12-22T08:51:59;30.33;;;3.90;;
54123;SDS011;55741;53.252;5.788;2023-12-22T08:54:24;24.88;;;3.80;;
54123;SDS011;55741;53.252;5.788;2023-12-22T08:56:51;18.67;;;4.13;;
54123;SDS011;55741;53.252;5.788;2023-12-22T08:59:18;19.48;;;3.85;;
54123;SDS011;55741;53.252;5.788;2023-12-22T09:01:43;22.27;;;4.95;;
54123;SDS011;55741;53.252;5.788;2023-12-22T09:04:10;25.25;;;3.80;;
54123;SDS011;55741;53.252;5.788;2023-12-22T09:06:38;14.48;;;3.35;;
54123;SDS011;55741;53.252;5.788;2023-12-22T09:09:04;21.00;;;3.13;;
54123;SDS011;55741;53.252;5.788;2023-12-22T09:11:31;22.98;;;4.28;;
54123;SDS011;55741;53.252;5.788;2023-12-22T09:13:57;19.10;;;4.32;;
54123;SDS011;55741;53.252;5.788;2023-12-22T09:16:23;17.13;;;3.67;;
54123;SDS011;55741;53.252;5.788;2023-12-22T09:18:52;24.83;;;3.42;;
54123;SDS011;55741;53.252;5.788;2023-12-22T09:21:18;19.08;;;4.03;;
54123;SDS011;55741;53.252;5.788;2023-12-22T09:23:45;24.95;;;4.65;;
54123;SDS011;55741;53.252;5.788;2023-12-22T09:26:14;20.25;;;4.00;;
54123;SDS011;55741;53.252;5.788;2023-12-22T09:28:41;23.27;;;4.18;;
54123;SDS011;55741;53.252;5.788;2023-12-22T09:31:07;31.17;;;4.28;;
54123;SDS011;55741;53.252;5.788;2023-12-22T09:33:33;22.02;;;4.18;;
54123;SDS011;55741;53.252;5.788;2023-12-22T09:35:59;29.67;;;3.95;;
54123;SDS011;55741;53.252;5.788;2023-12-22T09:38:25;26.70;;;4.53;;
54123;SDS011;55741;53.252;5.788;2023-12-22T09:40:53;22.73;;;3.60;;
54123;SDS011;55741;53.252;5.788;2023-12-22T09:43:19;20.58;;;3.13;;
54123;SDS011;55741;53.252;5.788;2023-12-22T09:45:46;22.52;;;3.90;;
54123;SDS011;55741;53.252;5.788;2023-12-22T09:48:13;24.67;;;4.28;;
54123;SDS011;55741;53.252;5.788;2023-12-22T09:50:45;20.48;;;3.65;;
54123;SDS011;55741;53.252;5.788;2023-12-22T09:53:12;17.92;;;3.35;;
54123;SDS011;55741;53.252;5.788;2023-12-22T09:55:42;19.73;;;4.22;;
54123;SDS011;55741;53.252;5.788;2023-12-22T09:58:09;18.25;;;3.88;;
54123;SDS011;55741;53.252;5.788;2023-12-22T10:00:36;28.38;;;4.07;;
54123;SDS011;55741;53.252;5.788;2023-12-22T10:03:04;18.48;;;3.40;;
54123;SDS011;55741;53.252;5.788;2023-12-22T10:05:32;25.00;;;4.30;;
54123;SDS011;55741;53.252;5.788;2023-12-22T10:08:00;32.85;;;3.65;;
54123;SDS011;55741;53.252;5.788;2023-12-22T10:10:27;18.30;;;3.47;;
54123;SDS011;55741;53.252;5.788;2023-12-22T10:12:56;16.25;;;2.95;;
54123;SDS011;55741;53.252;5.788;2023-12-22T10:15:24;20.20;;;3.42;;
54123;SDS011;55741;53.252;5.788;2023-12-22T10:17:54;20.63;;;4.10;;
54123;SDS011;55741;53.252;5.788;2023-12-22T10:20:21;16.80;;;3.30;;
54123;SDS011;55741;53.252;5.788;2023-12-22T10:22:47;20.13;;;3.60;;
54123;SDS011;55741;53.252;5.788;2023-12-22T10:25:19;22.98;;;3.90;;
54123;SDS011;55741;53.252;5.788;2023-12-22T10:27:46;21.42;;;3.70;;
54123;SDS011;55741;53.252;5.788;2023-12-22T10:30:12;17.40;;;3.47;;
54123;SDS011;55741;53.252;5.788;2023-12-22T10:32:40;19.67;;;3.17;;
54123;SDS011;55741;53.252;5.788;2023-12-22T10:35:09;20.65;;;3.40;;
54123;SDS011;55741;53.252;5.788;2023-12-22T10:37:35;20.00;;;3.55;;
54123;SDS011;55741;53.252;5.788;2023-12-22T10:40:05;19.23;;;4.43;;
54123;SDS011;55741;53.252;5.788;2023-12-22T10:42:31;23.35;;;3.45;;
54123;SDS011;55741;53.252;5.788;2023-12-22T10:44:57;18.63;;;3.38;;
54123;SDS011;55741;53.252;5.788;2023-12-22T10:47:23;23.13;;;3.92;;
54123;SDS011;55741;53.252;5.788;2023-12-22T10:49:49;22.15;;;3.60;;
54123;SDS011;55741;53.252;5.788;2023-12-22T10:52:16;20.10;;;4.00;;
54123;SDS011;55741;53.252;5.788;2023-12-22T10:54:43;19.33;;;3.63;;
54123;SDS011;55741;53.252;5.788;2023-12-22T10:57:12;21.33;;;4.05;;
54123;SDS011;55741;53.252;5.788;2023-12-22T10:59:44;23.05;;;4.32;;
54123;SDS011;55741;53.252;5.788;2023-12-22T11:02:15;19.95;;;4.85;;
54123;SDS011;55741;53.252;5.788;2023-12-22T11:04:47;16.52;;;3.17;;
54123;SDS011;55741;53.252;5.788;2023-12-22T11:07:26;17.48;;;3.22;;
54123;SDS011;55741;53.252;5.788;2023-12-22T11:10:00;21.63;;;3.30;;
54123;SDS011;55741;53.252;5.788;2023-12-22T11:12:28;23.70;;;3.45;;
54123;SDS011;55741;53.252;5.788;2023-12-22T11:14:56;20.33;;;4.53;;
54123;SDS011;55741;53.252;5.788;2023-12-22T11:17:23;22.48;;;3.60;;
54123;SDS011;55741;53.252;5.788;2023-12-22T11:19:50;21.60;;;4.07;;
54123;SDS011;55741;53.252;5.788;2023-12-22T11:22:19;25.77;;;4.50;;
54123;SDS011;55741;53.252;5.788;2023-12-22T11:24:47;21.98;;;4.00;;
54123;SDS011;55741;53.252;5.788;2023-12-22T11:27:17;18.73;;;3.67;;
54123;SDS011;55741;53.252;5.788;2023-12-22T11:30:05;24.95;;;4.50;;
54123;SDS011;55741;53.252;5.788;2023-12-22T11:32:34;25.13;;;4.55;;
54123;SDS011;55741;53.252;5.788;2023-12-22T11:35:01;20.25;;;3.88;;
54123;SDS011;55741;53.252;5.788;2023-12-22T11:37:27;16.10;;;3.42;;
54123;SDS011;55741;53.252;5.788;2023-12-22T11:39:57;21.90;;;3.75;;
54123;SDS011;55741;53.252;5.788;2023-12-22T11:42:28;28.42;;;4.63;;
54123;SDS011;55741;53.252;5.788;2023-12-22T11:45:02;20.67;;;3.47;;
54123;SDS011;55741;53.252;5.788;2023-12-22T11:47:28;27.17;;;3.72;;
54123;SDS011;55741;53.252;5.788;2023-12-22T11:49:55;24.50;;;3.97;;
54123;SDS011;55741;53.252;5.788;2023-12-22T11:52:25;12.85;;;2.97;;
54123;SDS011;55741;53.252;5.788;2023-12-22T11:54:55;19.92;;;3.60;;
54123;SDS011;55741;53.252;5.788;2023-12-22T12:02:32;19.45;;;4.00;;
54123;SDS011;55741;53.252;5.788;2023-12-22T12:05:03;17.60;;;3.17;;
54123;SDS011;55741;53.252;5.788;2023-12-22T12:07:51;17.80;;;3.10;;
54123;SDS011;55741;53.252;5.788;2023-12-22T12:11:19;19.20;;;3.97;;
54123;SDS011;55741;53.252;5.788;2023-12-22T12:13:34;22.63;;;3.13;;
54123;SDS011;55741;53.252;5.788;2023-12-22T12:16:02;20.35;;;3.50;;
54123;SDS011;55741;53.252;5.788;2023-12-22T12:18:31;22.77;;;3.08;;
54123;SDS011;55741;53.252;5.788;2023-12-22T12:20:59;17.73;;;4.07;;
54123;SDS011;55741;53.252;5.788;2023-12-22T12:23:28;16.77;;;4.63;;
54123;SDS011;55741;53.252;5.788;2023-12-22T12:25:54;17.55;;;4.47;;
54123;SDS011;55741;53.252;5.788;2023-12-22T12:28:24;21.95;;;3.45;;
54123;SDS011;55741;53.252;5.788;2023-12-22T12:30:56;19.25;;;3.28;;
54123;SDS011;55741;53.252;5.788;2023-12-22T12:33:25;15.38;;;3.20;;
54123;SDS011;55741;53.252;5.788;2023-12-22T12:35:58;25.20;;;3.17;;
54123;SDS011;55741;53.252;5.788;2023-12-22T12:38:36;16.00;;;3.17;;
54123;SDS011;55741;53.252;5.788;2023-12-22T12:41:06;16.40;;;3.10;;
54123;SDS011;55741;53.252;5.788;2023-12-22T12:43:36;18.08;;;2.95;;
54123;SDS011;55741;53.252;5.788;2023-12-22T12:46:06;15.15;;;3.30;;
54123;SDS011;55741;53.252;5.788;2023-12-22T12:48:32;16.58;;;3.90;;
54123;SDS011;55741;53.252;5.788;2023-12-22T12:51:02;12.30;;;2.70;;
54123;SDS011;55741;53.252;5.788;2023-12-22T12:53:32;14.30;;;3.35;;
54123;SDS011;55741;53.252;5.788;2023-12-22T12:55:58;11.32;;;2.78;;
54123;SDS011;55741;53.252;5.788;2023-12-22T12:58:46;17.13;;;4.18;;
54123;SDS011;55741;53.252;5.788;2023-12-22T13:01:11;18.17;;;3.42;;
54123;SDS011;55741;53.252;5.788;2023-12-22T13:03:56;13.75;;;4.20;;
54123;SDS011;55741;53.252;5.788;2023-12-22T13:06:23;16.90;;;2.70;;
54123;SDS011;55741;53.252;5.788;2023-12-22T13:08:49;18.50;;;3.17;;
54123;SDS011;55741;53.252;5.788;2023-12-22T13:11:20;16.77;;;3.38;;
54123;SDS011;55741;53.252;5.788;2023-12-22T13:13:47;15.23;;;3.60;;
54123;SDS011;55741;53.252;5.788;2023-12-22T13:16:17;16.15;;;2.83;;
54123;SDS011;55741;53.252;5.788;2023-12-22T13:18:47;13.38;;;3.13;;
54123;SDS011;55741;53.252;5.788;2023-12-22T13:21:14;17.23;;;3.45;;
54123;SDS011;55741;53.252;5.788;2023-12-22T13:23:40;16.67;;;4.18;;
54123;SDS011;55741;53.252;5.788;2023-12-22T13:26:26;17.52;;;3.90;;
54123;SDS011;55741;53.252;5.788;2023-12-22T13:28:57;15.63;;;3.70;;
54123;SDS011;55741;53.252;5.788;2023-12-22T13:31:24;13.80;;;2.30;;
54123;SDS011;55741;53.252;5.788;2023-12-22T13:33:50;11.35;;;1.88;;
54123;SDS011;55741;53.252;5.788;2023-12-22T13:36:16;10.32;;;2.40;;
54123;SDS011;55741;53.252;5.788;2023-12-22T13:38:45;12.57;;;2.35;;
54123;SDS011;55741;53.252;5.788;2023-12-22T13:41:12;8.23;;;2.20;;
54123;SDS011;55741;53.252;5.788;2023-12-22T13:43:38;10.50;;;1.77;;
54123;SDS011;55741;53.252;5.788;2023-12-22T13:46:04;16.63;;;2.22;;
54123;SDS011;55741;53.252;5.788;2023-12-22T13:48:33;11.68;;;2.28;;
54123;SDS011;55741;53.252;5.788;2023-12-22T13:50:59;8.25;;;2.15;;
54123;SDS011;55741;53.252;5.788;2023-12-22T13:53:26;16.00;;;3.40;;
54123;SDS011;55741;53.252;5.788;2023-12-22T13:55:58;16.40;;;2.08;;
54123;SDS011;55741;53.252;5.788;2023-12-22T13:58:25;12.93;;;2.38;;
54123;SDS011;55741;53.252;5.788;2023-12-22T14:01:12;12.68;;;2.30;;
54123;SDS011;55741;53.252;5.788;2023-12-22T14:03:42;19.23;;;2.63;;
54123;SDS011;55741;53.252;5.788;2023-12-22T14:06:08;13.80;;;2.40;;
54123;SDS011;55741;53.252;5.788;2023-12-22T14:08:35;11.55;;;2.42;;
54123;SDS011;55741;53.252;5.788;2023-12-22T14:11:01;15.60;;;3.03;;
54123;SDS011;55741;53.252;5.788;2023-12-22T14:13:28;13.48;;;2.80;;
54123;SDS011;55741;53.252;5.788;2023-12-22T14:15:54;19.05;;;3.20;;
54123;SDS011;55741;53.252;5.788;2023-12-22T14:18:20;15.93;;;3.67;;
54123;SDS011;55741;53.252;5.788;2023-12-22T14:20:46;22.65;;;3.03;;
54123;SDS011;55741;53.252;5.788;2023-12-22T14:23:12;19.38;;;2.78;;
54123;SDS011;55741;53.252;5.788;2023-12-22T14:25:44;24.90;;;3.33;;
54123;SDS011;55741;53.252;5.788;2023-12-22T14:28:11;19.48;;;3.58;;
54123;SDS011;55741;53.252;5.788;2023-12-22T14:30:37;15.27;;;2.58;;
54123;SDS011;55741;53.252;5.788;2023-12-22T14:33:02;23.05;;;2.80;;
54123;SDS011;55741;53.252;5.788;2023-12-22T14:35:28;19.35;;;2.88;;
54123;SDS011;55741;53.252;5.788;2023-12-22T14:37:55;18.85;;;3.53;;
54123;SDS011;55741;53.252;5.788;2023-12-22T14:40:20;17.90;;;3.20;;
54123;SDS011;55741;53.252;5.788;2023-12-22T14:42:46;21.33;;;3.13;;
54123;SDS011;55741;53.252;5.788;2023-12-22T14:45:12;20.77;;;3.95;;
54123;SDS011;55741;53.252;5.788;2023-12-22T14:47:38;15.35;;;3.03;;
54123;SDS011;55741;53.252;5.788;2023-12-22T14:50:04;15.57;;;3.30;;